Time;durP1;ratioP1;P1;durP2;ratioP2;P2;SDS_P1;SDS_P2;PMS_P1;PMS_P2;Temp;Humidity;BMP_temperature;BMP_pressure;BME280_temperature;BME280_humidity;BME280_pressure;Samples;Min_cycle;Max_cycle;Signal;HPM_P1;HPM_P2
2022/08/05 00:00:03;;;;;;;7.95;6.37;;;;;;;19.72;78.49;100026.72;1677263;83;21056;-70
2022/08/05 00:02:31;;;;;;;8.55;7.17;;;;;;;19.75;78.62;100024.68;1674588;85;21934;-70
2022/08/05 00:04:59;;;;;;;7.33;6.28;;;;;;;19.78;78.81;100029.66;1650998;85;20893;-70
2022/08/05 00:07:26;;;;;;;10.80;6.65;;;;;;;19.80;78.99;100031.66;1675123;83;21084;-70
2022/08/05 00:09:53;;;;;;;8.88;6.10;;;;;;;19.83;79.05;100030.75;1675604;83;21040;-71
2022/08/05 00:12:20;;;;;;;8.15;6.10;;;;;;;19.87;79.07;100033.36;1686650;82;20954;-70
2022/08/05 00:14:47;;;;;;;7.17;6.40;;;;;;;19.90;79.15;100033.52;1666748;84;21951;-71
2022/08/05 00:17:13;;;;;;;8.05;6.30;;;;;;;19.93;79.13;100031.27;1679982;83;21052;-72
2022/08/05 00:19:40;;;;;;;7.50;6.50;;;;;;;19.96;79.05;100030.87;1673596;85;20993;-70
2022/08/05 00:22:06;;;;;;;10.20;7.15;;;;;;;19.98;79.11;100040.09;1676876;84;21446;-71
2022/08/05 00:24:33;;;;;;;7.62;6.58;;;;;;;20.03;79.13;100050.23;1659007;85;21023;-72
2022/08/05 00:26:59;;;;;;;7.70;6.10;;;;;;;20.04;79.20;100050.04;1708671;82;21830;-71
2022/08/05 00:29:26;;;;;;;8.20;7.05;;;;;;;20.06;79.29;100052.52;1682459;83;20953;-71
2022/08/05 00:31:54;;;;;;;10.40;6.92;;;;;;;20.05;79.30;100055.72;1666379;85;21438;-72
2022/08/05 00:34:21;;;;;;;8.35;7.53;;;;;;;20.05;79.32;100053.55;1679778;83;21625;-70
2022/08/05 00:36:48;;;;;;;9.03;8.13;;;;;;;20.04;79.40;100051.89;1652653;85;21477;-71
2022/08/05 00:39:17;;;;;;;11.38;8.20;;;;;;;20.01;79.51;100050.43;1654971;85;22500;-71
2022/08/05 00:41:46;;;;;;;10.45;8.33;;;;;;;19.97;79.69;100043.26;1695553;82;21052;-71
2022/08/05 00:44:12;;;;;;;9.08;7.87;;;;;;;19.96;79.87;100039.44;1673244;84;21414;-71
2022/08/05 00:46:45;;;;;;;9.05;8.15;;;;;;;19.97;79.94;100036.56;1667606;84;21431;-70
2022/08/05 00:49:13;;;;;;;8.68;7.78;;;;;;;19.98;79.99;100035.56;1664235;84;21028;-71
2022/08/05 00:51:45;;;;;;;8.63;7.60;;;;;;;19.99;80.02;100026.50;1667220;85;22809;-71
2022/08/05 00:54:15;;;;;;;9.80;8.28;;;;;;;20.01;80.04;100020.42;1676180;84;21561;-71
2022/08/05 00:56:46;;;;;;;8.20;7.37;;;;;;;20.03;80.04;100018.89;1654191;85;21016;-70
2022/08/05 00:59:18;;;;;;;13.90;7.45;;;;;;;20.03;80.10;100021.57;1675373;84;22385;-71
2022/08/05 01:01:51;;;;;;;11.75;7.90;;;;;;;20.04;80.09;100017.03;1676952;84;21427;-71
2022/08/05 01:04:24;;;;;;;8.63;7.70;;;;;;;20.06;80.06;100021.69;1634414;85;21832;-70
2022/08/05 01:06:55;;;;;;;8.75;7.85;;;;;;;20.07;80.02;100023.34;1668863;84;27396;-70
2022/08/05 01:09:27;;;;;;;8.30;7.37;;;;;;;20.04;80.00;100029.10;1674614;84;21022;-71
2022/08/05 01:12:01;;;;;;;8.68;7.72;;;;;;;20.04;80.09;100032.61;1634309;85;21493;-72
2022/08/05 01:14:44;;;;;;;11.25;8.33;;;;;;;20.05;80.05;100028.08;1653878;83;20972;-71
2022/08/05 01:17:25;;;;;;;10.03;8.20;;;;;;;20.06;80.02;100029.73;1668153;84;22203;-71
2022/08/05 01:20:21;;;;;;;12.00;8.85;;;;;;;20.06;80.02;100033.75;1658854;85;21023;-71
2022/08/05 01:23:14;;;;;;;12.33;9.33;;;;;;;20.06;80.04;100032.41;1666834;84;21027;-71
2022/08/05 01:26:15;;;;;;;11.33;9.25;;;;;;;20.05;80.04;100036.95;1646099;84;21051;-71
2022/08/05 01:29:01;;;;;;;12.88;9.53;;;;;;;20.04;80.10;100029.10;1669046;84;21482;-71
2022/08/05 01:31:48;;;;;;;14.15;10.18;;;;;;;20.05;80.20;100032.09;1614538;85;21567;-71
2022/08/05 01:34:29;;;;;;;12.25;10.18;;;;;;;20.07;80.24;100026.03;1669174;84;21008;-71
2022/08/05 01:37:07;;;;;;;12.23;10.72;;;;;;;20.07;80.33;100035.41;1660826;84;21505;-71
2022/08/05 01:39:35;;;;;;;12.30;11.00;;;;;;;20.07;80.41;100036.23;1629797;84;21130;-71
2022/08/05 01:42:03;;;;;;;13.25;11.95;;;;;;;20.10;80.47;100037.73;1687678;83;21078;-72
2022/08/05 01:44:30;;;;;;;15.20;11.75;;;;;;;20.09;80.49;100034.73;1665334;84;22577;-70
2022/08/05 01:46:56;;;;;;;18.35;12.25;;;;;;;20.08;80.58;100035.76;1661830;84;22408;-72
2022/08/05 01:49:23;;;;;;;17.42;12.40;;;;;;;20.06;80.69;100039.95;1664210;84;21059;-72
2022/08/05 01:51:51;;;;;;;15.85;12.05;;;;;;;20.06;80.80;100043.97;1659829;84;21137;-72
2022/08/05 01:54:17;;;;;;;15.08;12.28;;;;;;;20.07;80.92;100042.11;1656601;84;21396;-72
2022/08/05 01:56:44;;;;;;;15.63;13.03;;;;;;;20.08;80.92;100043.80;1661464;84;22562;-71
2022/08/05 01:59:14;;;;;;;13.85;12.45;;;;;;;20.10;80.93;100043.92;1664454;84;21427;-71
2022/08/05 02:01:41;;;;;;;15.00;13.28;;;;;;;20.13;80.91;100045.38;1663681;85;21065;-70
2022/08/05 02:04:08;;;;;;;17.23;13.70;;;;;;;20.13;80.99;100040.84;1668556;84;21435;-70
2022/08/05 02:06:35;;;;;;;14.95;12.90;;;;;;;20.11;81.15;100046.09;1652261;84;21505;-71
2022/08/05 02:09:03;;;;;;;17.30;13.28;;;;;;;20.10;81.30;100039.08;1669869;84;21849;-73
2022/08/05 02:11:38;;;;;;;16.65;12.95;;;;;;;20.13;81.36;100043.53;1644591;85;20968;-71
2022/08/05 02:14:16;;;;;;;15.38;12.45;;;;;;;20.17;81.40;100043.97;1661860;84;21130;-71
2022/08/05 02:16:54;;;;;;;16.25;13.03;;;;;;;20.19;81.37;100044.11;1678792;84;21040;-72
2022/08/05 02:19:30;;;;;;;18.32;13.15;;;;;;;20.22;81.41;100043.72;1661845;84;21495;-72
2022/08/05 02:22:04;;;;;;;16.42;13.22;;;;;;;20.26;81.44;100053.54;1667785;85;21911;-72
2022/08/05 02:24:35;;;;;;;18.15;13.00;;;;;;;20.27;81.42;100048.02;1679211;83;21043;-70
2022/08/05 02:27:05;;;;;;;15.55;12.98;;;;;;;20.27;81.42;100060.59;1641206;84;21018;-72
2022/08/05 02:29:34;;;;;;;17.90;12.68;;;;;;;20.28;81.41;100058.23;1690194;83;21263;-70
2022/08/05 02:32:05;;;;;;;19.10;13.25;;;;;;;20.29;81.37;100054.52;1689641;84;21127;-71
2022/08/05 02:34:34;;;;;;;18.75;12.85;;;;;;;20.25;81.35;100055.91;1689947;83;22465;-72
2022/08/05 02:37:07;;;;;;;18.48;12.68;;;;;;;20.23;81.47;100067.34;1668193;84;21018;-72
2022/08/05 02:39:38;;;;;;;17.32;11.93;;;;;;;20.25;81.53;100067.98;1689865;83;21509;-71
2022/08/05 02:42:08;;;;;;;14.13;12.63;;;;;;;20.24;81.55;100066.31;1692502;83;21098;-70
2022/08/05 02:44:37;;;;;;;16.40;11.85;;;;;;;20.24;81.60;100067.14;1690917;83;20967;-72
2022/08/05 02:47:05;;;;;;;16.30;12.63;;;;;;;20.26;81.62;100073.66;1681073;83;21885;-72
2022/08/05 02:49:36;;;;;;;15.13;12.85;;;;;;;20.27;81.59;100069.47;1689792;84;21007;-71
2022/08/05 02:52:04;;;;;;;14.47;12.93;;;;;;;20.29;81.52;100069.27;1690557;84;20998;-71
2022/08/05 02:54:32;;;;;;;16.30;13.03;;;;;;;20.29;81.48;100069.27;1671567;84;21058;-72
2022/08/05 02:56:59;;;;;;;17.40;12.47;;;;;;;20.28;81.52;100065.76;1689088;83;20999;-71
2022/08/05 02:59:25;;;;;;;15.32;12.05;;;;;;;20.28;81.53;100058.23;1682925;83;21899;-71
2022/08/05 03:01:53;;;;;;;13.93;12.07;;;;;;;20.25;81.54;100055.39;1682582;83;21020;-70
2022/08/05 03:04:19;;;;;;;14.45;12.13;;;;;;;20.21;81.58;100055.47;1684222;83;20972;-70
2022/08/05 03:06:46;;;;;;;15.68;12.37;;;;;;;20.21;81.69;100055.47;1702128;83;21011;-71
2022/08/05 03:09:13;;;;;;;14.10;11.68;;;;;;;20.23;81.79;100059.30;1695289;83;21081;-72
2022/08/05 03:11:42;;;;;;;13.48;11.83;;;;;;;20.25;81.89;100060.76;1691874;83;21846;-70
2022/08/05 03:14:09;;;;;;;15.45;12.15;;;;;;;20.26;81.92;100055.70;1688940;83;21456;-70
2022/08/05 03:16:35;;;;;;;14.25;12.23;;;;;;;20.29;81.96;100055.86;1662418;84;21047;-70
2022/08/05 03:19:03;;;;;;;14.13;11.80;;;;;;;20.32;81.97;100058.66;1684634;84;21576;-71
2022/08/05 03:21:30;;;;;;;17.05;12.10;;;;;;;20.36;81.98;100062.60;1683522;83;21060;-70
2022/08/05 03:23:56;;;;;;;16.75;11.83;;;;;;;20.40;81.98;100061.22;1681976;83;22531;-70
2022/08/05 03:26:22;;;;;;;14.20;11.65;;;;;;;20.42;82.02;100068.03;1664446;84;21486;-70
2022/08/05 03:28:49;;;;;;;15.53;12.55;;;;;;;20.46;82.03;100065.34;1665326;84;21110;-70
2022/08/05 03:31:15;;;;;;;13.65;11.68;;;;;;;20.52;81.97;100065.05;1665326;84;21047;-71
2022/08/05 03:33:42;;;;;;;13.55;12.13;;;;;;;20.56;81.84;100067.69;1666967;84;21082;-71
2022/08/05 03:36:09;;;;;;;14.58;11.83;;;;;;;20.57;81.81;100061.30;1664184;85;21946;-70
2022/08/05 03:38:41;;;;;;;15.55;11.95;;;;;;;20.62;81.76;100067.41;1663861;84;21604;-70
2022/08/05 03:41:08;;;;;;;12.90;11.65;;;;;;;20.64;81.68;100072.06;1665329;85;20864;-71
2022/08/05 03:43:35;;;;;;;12.60;11.30;;;;;;;20.65;81.59;100067.00;1666920;84;21528;-71
2022/08/05 03:46:01;;;;;;;12.65;11.20;;;;;;;20.64;81.52;100070.20;1648997;84;21043;-71
2022/08/05 03:48:28;;;;;;;13.98;11.35;;;;;;;20.66;81.49;100067.35;1671545;83;21973;-71
2022/08/05 03:51:21;;;;;;;13.10;11.57;;;;;;;20.67;81.44;100064.47;1687519;83;21073;-71
2022/08/05 03:53:57;;;;;;;12.85;11.53;;;;;;;20.67;81.40;100066.32;1679263;83;21060;-70
2022/08/05 03:56:40;;;;;;;12.63;11.28;;;;;;;20.68;81.45;100061.27;1670196;83;21062;-71
2022/08/05 03:59:16;;;;;;;13.15;11.93;;;;;;;20.71;81.38;100060.87;1667766;85;21037;-71
2022/08/05 04:01:45;;;;;;;14.10;12.35;;;;;;;20.74;81.31;100065.33;1640824;85;21916;-71
2022/08/05 04:04:16;;;;;;;14.45;12.25;;;;;;;20.79;81.28;100063.41;1671335;84;21047;-71
2022/08/05 04:06:43;;;;;;;14.07;12.37;;;;;;;20.83;81.15;100062.81;1662167;85;21004;-71
2022/08/05 04:09:10;;;;;;;12.78;11.53;;;;;;;20.87;81.04;100065.95;1667697;84;20956;-71
2022/08/05 04:11:37;;;;;;;13.78;12.37;;;;;;;20.92;80.94;100068.86;1669724;84;21051;-71
2022/08/05 04:14:04;;;;;;;13.22;11.83;;;;;;;20.96;80.84;100061.27;1673070;84;22004;-71
2022/08/05 04:16:32;;;;;;;14.45;11.88;;;;;;;20.98;80.70;100066.75;1654567;85;21012;-71
2022/08/05 04:18:58;;;;;;;14.25;12.75;;;;;;;21.01;80.60;100063.66;1656004;84;20984;-70
2022/08/05 04:21:25;;;;;;;13.18;11.90;;;;;;;21.05;80.49;100064.94;1657857;85;21048;-70
2022/08/05 04:23:51;;;;;;;13.62;12.30;;;;;;;21.07;80.40;100066.91;1658596;85;21063;-71
2022/08/05 04:26:18;;;;;;;14.00;12.60;;;;;;;21.10;80.36;100067.84;1630056;85;22318;-71
2022/08/05 04:28:44;;;;;;;13.45;12.25;;;;;;;21.11;80.25;100070.02;1683410;83;21510;-71
2022/08/05 04:31:10;;;;;;;14.40;12.85;;;;;;;21.12;80.22;100070.33;1649653;84;21442;-71
2022/08/05 04:33:38;;;;;;;14.23;12.82;;;;;;;21.09;80.06;100064.02;1654562;84;21061;-70
2022/08/05 04:36:05;;;;;;;14.20;12.82;;;;;;;21.09;80.10;100066.19;1648290;84;21028;-72
2022/08/05 04:38:33;;;;;;;14.78;13.38;;;;;;;21.09;80.12;100071.56;1656220;84;22408;-73
2022/08/05 04:40:59;;;;;;;14.93;13.32;;;;;;;21.11;80.03;100072.19;1658724;85;20929;-71
2022/08/05 04:43:25;;;;;;;15.03;13.40;;;;;;;21.11;80.05;100065.98;1657881;84;21048;-71
2022/08/05 04:45:52;;;;;;;15.23;13.08;;;;;;;21.15;80.14;100063.24;1657979;84;21031;-70
2022/08/05 04:48:18;;;;;;;14.65;13.15;;;;;;;21.18;80.09;100062.01;1657752;84;21134;-71
2022/08/05 04:50:47;;;;;;;14.95;13.20;;;;;;;21.20;80.06;100067.48;1654993;84;21905;-71
2022/08/05 04:53:15;;;;;;;14.78;13.18;;;;;;;21.24;80.03;100067.42;1659026;85;22274;-71
2022/08/05 04:55:42;;;;;;;15.13;13.60;;;;;;;21.27;79.97;100076.45;1648971;84;21055;-71
2022/08/05 04:58:11;;;;;;;15.35;13.85;;;;;;;21.33;79.77;100074.84;1656655;84;21079;-71
2022/08/05 05:00:38;;;;;;;15.60;13.55;;;;;;;21.36;79.66;100073.92;1654355;85;20985;-72
2022/08/05 05:03:05;;;;;;;15.65;14.15;;;;;;;21.42;79.49;100070.93;1652074;84;21792;-72
2022/08/05 05:05:32;;;;;;;14.55;13.15;;;;;;;21.44;79.15;100075.61;1635957;86;21052;-71
2022/08/05 05:08:01;;;;;;;16.15;12.93;;;;;;;21.47;78.97;100079.75;1669039;83;21077;-71
2022/08/05 05:10:34;;;;;;;15.65;14.05;;;;;;;21.50;78.81;100078.83;1666329;84;21039;-71
2022/08/05 05:13:01;;;;;;;15.35;13.35;;;;;;;21.54;78.60;100076.08;1665784;84;20988;-71
2022/08/05 05:15:27;;;;;;;14.98;13.48;;;;;;;21.57;78.40;100079.70;1671415;84;22292;-71
2022/08/05 05:17:54;;;;;;;15.25;13.70;;;;;;;21.59;78.30;100076.28;1674194;84;21080;-71
2022/08/05 05:20:20;;;;;;;15.30;13.80;;;;;;;21.65;78.19;100065.26;1672331;84;21066;-72
2022/08/05 05:22:46;;;;;;;15.63;13.43;;;;;;;21.68;77.94;100068.36;1667627;84;21001;-70
2022/08/05 05:25:13;;;;;;;16.23;14.63;;;;;;;21.66;77.70;100071.77;1677377;84;21015;-72
2022/08/05 05:27:39;;;;;;;15.23;13.78;;;;;;;21.67;77.61;100072.59;1692199;83;22540;-71
2022/08/05 05:30:08;;;;;;;17.25;14.60;;;;;;;21.66;77.56;100073.63;1684274;83;21002;-71
2022/08/05 05:32:34;;;;;;;16.27;14.68;;;;;;;21.66;77.35;100074.98;1694223;83;21487;-71
2022/08/05 05:35:01;;;;;;;16.90;14.78;;;;;;;21.67;77.30;100073.42;1694915;83;21102;-75
2022/08/05 05:37:28;;;;;;;18.85;15.18;;;;;;;21.67;77.26;100072.08;1665066;84;20967;-71
2022/08/05 05:39:54;;;;;;;18.52;15.45;;;;;;;21.69;77.11;100073.22;1689104;83;21960;-73
2022/08/05 05:42:21;;;;;;;16.55;14.85;;;;;;;21.69;77.04;100071.36;1687223;83;21090;-72
2022/08/05 05:44:48;;;;;;;17.17;15.23;;;;;;;21.71;76.97;100071.16;1691883;83;21004;-71
2022/08/05 05:47:14;;;;;;;17.52;15.32;;;;;;;21.71;76.82;100071.16;1684244;83;21097;-73
2022/08/05 05:49:41;;;;;;;18.02;15.43;;;;;;;21.73;76.87;100076.36;1686333;83;21051;-71
2022/08/05 05:52:07;;;;;;;17.35;15.28;;;;;;;21.77;76.95;100084.31;1690542;83;21928;-71
2022/08/05 05:54:35;;;;;;;16.85;15.15;;;;;;;21.83;76.89;100083.00;1679666;83;21470;-71
2022/08/05 05:57:01;;;;;;;16.93;15.23;;;;;;;21.90;76.81;100084.34;1690291;83;21038;-73
2022/08/05 05:59:28;;;;;;;17.65;14.95;;;;;;;21.90;76.58;100084.34;1695320;83;21027;-70
2022/08/05 06:01:54;;;;;;;17.23;15.48;;;;;;;21.94;76.58;100087.79;1668426;83;21152;-70
2022/08/05 06:04:21;;;;;;;16.82;15.03;;;;;;;21.98;76.39;100085.00;1692859;83;21903;-70
2022/08/05 06:06:48;;;;;;;16.37;14.68;;;;;;;22.03;76.31;100084.41;1683257;83;20959;-70
2022/08/05 06:09:14;;;;;;;16.23;14.53;;;;;;;22.08;76.15;100086.50;1695316;83;21131;-70
2022/08/05 06:11:41;;;;;;;17.25;14.73;;;;;;;22.09;75.83;100087.64;1686018;83;20976;-70
2022/08/05 06:14:07;;;;;;;16.30;14.68;;;;;;;22.07;75.48;100095.09;1694652;83;20987;-70
2022/08/05 06:16:34;;;;;;;16.55;14.95;;;;;;;22.07;75.46;100093.74;1695158;84;21793;-71
2022/08/05 06:19:00;;;;;;;17.15;15.28;;;;;;;22.11;75.59;100107.11;1693905;83;20948;-72
2022/08/05 06:21:27;;;;;;;17.57;15.83;;;;;;;22.16;75.61;100113.22;1696068;84;20967;-70
2022/08/05 06:23:54;;;;;;;17.92;15.75;;;;;;;22.18;75.48;100109.28;1694994;83;21083;-70
2022/08/05 06:26:20;;;;;;;18.25;16.30;;;;;;;22.18;75.38;100114.66;1695053;83;21065;-70
2022/08/05 06:28:46;;;;;;;19.87;16.17;;;;;;;22.16;75.26;100114.05;1695407;83;21972;-71
2022/08/05 06:31:13;;;;;;;18.15;16.25;;;;;;;22.13;75.21;100113.11;1696635;83;21443;-71
2022/08/05 06:33:39;;;;;;;17.70;15.72;;;;;;;22.09;75.12;100112.36;1693383;83;21000;-70
2022/08/05 06:36:06;;;;;;;20.95;16.90;;;;;;;22.09;75.23;100114.53;1688232;83;21105;-71
2022/08/05 06:38:32;;;;;;;101.97;92.00;;;;;;;22.06;75.30;100111.40;1681587;83;21058;-73
2022/08/05 06:40:59;;;;;;;29.80;26.62;;;;;;;22.04;75.42;100110.27;1695623;83;21895;-70
2022/08/05 06:43:25;;;;;;;36.90;33.08;;;;;;;22.08;75.51;100110.19;1685690;83;20999;-72
2022/08/05 06:45:52;;;;;;;21.73;19.40;;;;;;;22.10;75.47;100114.02;1687360;83;21062;-70
2022/08/05 06:48:18;;;;;;;20.52;17.67;;;;;;;22.14;75.53;100112.59;1694883;83;21451;-70
2022/08/05 06:50:45;;;;;;;20.85;17.35;;;;;;;22.17;75.63;100106.28;1692842;83;21480;-70
2022/08/05 06:53:13;;;;;;;19.55;17.55;;;;;;;22.19;75.50;100104.21;1683955;83;21817;-71
2022/08/05 06:55:41;;;;;;;20.15;18.05;;;;;;;22.22;75.47;100111.89;1691995;83;21057;-72
2022/08/05 06:58:08;;;;;;;21.62;18.75;;;;;;;22.23;75.21;100109.52;1693615;82;21095;-72
2022/08/05 07:00:35;;;;;;;20.95;18.67;;;;;;;22.28;75.20;100115.61;1693325;83;21477;-73
2022/08/05 07:03:01;;;;;;;20.30;18.25;;;;;;;22.32;75.25;100114.70;1689846;83;21112;-73
2022/08/05 07:05:28;;;;;;;21.07;18.90;;;;;;;22.38;75.33;100112.52;1693036;83;21890;-71
2022/08/05 07:07:55;;;;;;;22.30;18.82;;;;;;;22.39;75.04;100121.77;1696480;83;20960;-71
2022/08/05 07:10:24;;;;;;;21.55;19.35;;;;;;;22.36;74.92;100125.36;1697278;83;21278;-72
2022/08/05 07:18:20;;;;;;;23.62;19.42;;;;;;;22.25;75.10;100142.42;1695149;83;22484;-72
2022/08/05 07:20:47;;;;;;;21.10;18.90;;;;;;;22.22;75.15;100136.11;1697231;84;21423;-72
2022/08/05 07:23:13;;;;;;;21.77;19.48;;;;;;;22.22;75.13;100137.45;1696236;83;20988;-72
2022/08/05 07:25:40;;;;;;;22.67;19.67;;;;;;;22.22;75.17;100145.52;1692349;82;21004;-73
2022/08/05 07:28:06;;;;;;;24.00;20.35;;;;;;;22.23;75.23;100141.80;1680973;83;21335;-72
2022/08/05 07:30:34;;;;;;;22.90;20.60;;;;;;;22.27;75.21;100141.69;1672857;83;21765;-71
2022/08/05 07:33:02;;;;;;;28.55;23.12;;;;;;;22.30;75.12;100144.52;1684793;83;20972;-72
2022/08/05 07:35:29;;;;;;;29.05;22.87;;;;;;;22.34;75.04;100146.27;1693343;82;21063;-72
2022/08/05 07:37:56;;;;;;;27.82;21.77;;;;;;;22.39;75.02;100139.74;1679726;83;21045;-72
2022/08/05 07:40:22;;;;;;;63.78;22.98;;;;;;;22.40;74.82;100138.73;1692541;83;21020;-72
2022/08/05 07:42:49;;;;;;;30.40;22.07;;;;;;;22.31;74.43;100144.00;1678751;83;22588;-72
2022/08/05 07:45:16;;;;;;;26.42;22.85;;;;;;;22.26;74.67;100146.77;1680408;83;21054;-77
2022/08/05 07:47:43;;;;;;;24.95;21.05;;;;;;;22.32;75.20;100141.62;1689172;84;21419;-76
2022/08/05 07:50:09;;;;;;;23.90;21.30;;;;;;;22.41;75.31;100143.08;1693854;84;21059;-77
2022/08/05 07:52:43;;;;;;;23.98;21.07;;;;;;;22.46;75.24;100147.32;1673012;84;21041;-76
2022/08/05 07:55:10;;;;;;;23.30;20.90;;;;;;;22.45;74.31;100156.43;1675902;84;21838;-76
2022/08/05 07:57:36;;;;;;;27.05;21.75;;;;;;;22.34;74.25;100157.03;1675954;84;21355;-77
2022/08/05 08:00:08;;;;;;;24.10;21.50;;;;;;;22.34;74.47;100160.55;1686601;83;20998;-76
2022/08/05 08:02:36;;;;;;;24.02;21.20;;;;;;;22.35;74.43;100156.83;1669199;84;21012;-74
2022/08/05 08:05:04;;;;;;;26.55;21.85;;;;;;;22.39;74.59;100163.96;1665424;84;21162;-72
2022/08/05 08:07:31;;;;;;;24.10;20.45;;;;;;;22.38;74.37;100161.79;1678812;84;21963;-70
2022/08/05 08:09:58;;;;;;;23.98;21.05;;;;;;;22.36;74.27;100168.41;1683331;83;20992;-72
2022/08/05 08:12:25;;;;;;;24.05;20.92;;;;;;;22.35;74.34;100164.90;1687838;83;21075;-74
2022/08/05 08:14:52;;;;;;;23.98;21.40;;;;;;;22.34;74.20;100165.94;1680024;84;21540;-73
2022/08/05 08:17:19;;;;;;;23.70;21.20;;;;;;;22.36;74.37;100169.76;1663881;85;20996;-73
2022/08/05 08:19:45;;;;;;;24.52;21.33;;;;;;;22.41;74.56;100164.09;1677892;84;21931;-73
2022/08/05 08:22:11;;;;;;;23.73;21.23;;;;;;;22.51;74.63;100163.70;1684698;84;21009;-73
2022/08/05 08:24:38;;;;;;;22.55;20.25;;;;;;;22.65;74.69;100167.22;1676021;84;21379;-72
2022/08/05 08:27:06;;;;;;;22.45;20.15;;;;;;;22.77;74.25;100154.28;1685845;84;21078;-72
2022/08/05 08:29:33;;;;;;;23.25;19.70;;;;;;;22.87;73.72;100153.08;1696990;83;21024;-74
2022/08/05 08:31:59;;;;;;;22.00;19.82;;;;;;;22.98;73.90;100148.44;1688350;83;22867;-72
2022/08/05 08:34:26;;;;;;;23.47;20.55;;;;;;;23.18;74.14;100151.94;1692393;83;20972;-73
2022/08/05 08:36:54;;;;;;;22.25;19.85;;;;;;;23.34;72.90;100147.44;1679256;84;21072;-73
2022/08/05 08:39:23;;;;;;;21.52;18.35;;;;;;;23.44;72.13;100151.05;1691659;83;21121;-78
2022/08/05 08:41:50;;;;;;;21.80;18.95;;;;;;;23.51;71.73;100154.55;1686772;84;20973;-71
2022/08/05 08:44:18;;;;;;;22.15;18.32;;;;;;;23.58;71.20;100158.07;1685642;83;21788;-73
2022/08/05 08:46:46;;;;;;;20.62;18.20;;;;;;;23.67;71.01;100162.75;1686045;83;21078;-74
2022/08/05 08:49:13;;;;;;;19.98;17.87;;;;;;;23.71;70.72;100158.57;1664218;83;21068;-73
2022/08/05 08:51:41;;;;;;;25.10;18.05;;;;;;;23.75;70.40;100162.52;1677734;83;21042;-72
2022/08/05 08:54:09;;;;;;;20.30;18.20;;;;;;;23.83;70.57;100164.95;1688381;83;21058;-72
2022/08/05 08:56:38;;;;;;;20.52;18.42;;;;;;;23.95;70.08;100161.91;1650383;83;22557;-71
2022/08/05 08:59:05;;;;;;;19.42;17.42;;;;;;;24.09;69.65;100159.14;1688186;83;21097;-73
2022/08/05 09:01:33;;;;;;;19.42;17.48;;;;;;;24.20;69.24;100157.11;1684663;84;21537;-72
2022/08/05 09:03:59;;;;;;;18.48;16.48;;;;;;;24.33;69.16;100157.61;1687889;83;21047;-71
2022/08/05 09:06:27;;;;;;;18.32;15.88;;;;;;;24.44;68.92;100152.86;1683634;83;21036;-71
2022/08/05 09:08:54;;;;;;;19.17;16.85;;;;;;;24.62;68.75;100152.13;1695116;83;22566;-74
2022/08/05 09:11:21;;;;;;;18.45;16.50;;;;;;;24.74;67.71;100155.77;1691961;83;21323;-72
2022/08/05 09:13:47;;;;;;;17.55;15.85;;;;;;;24.69;66.98;100163.69;1685226;83;21075;-72
2022/08/05 09:16:14;;;;;;;18.52;16.50;;;;;;;24.69;67.44;100160.98;1668432;84;21250;-72
2022/08/05 09:18:43;;;;;;;18.23;16.52;;;;;;;24.74;67.22;100161.99;1689067;84;21023;-72
2022/08/05 09:21:09;;;;;;;17.85;15.93;;;;;;;24.82;67.15;100164.95;1689091;83;21797;-70
2022/08/05 09:23:36;;;;;;;17.98;15.80;;;;;;;24.89;66.31;100170.28;1684245;83;21021;-72
2022/08/05 09:26:15;;;;;;;18.42;16.62;;;;;;;24.93;66.25;100167.46;1682528;85;21085;-72
2022/08/05 09:28:41;;;;;;;17.30;15.58;;;;;;;25.00;65.72;100172.30;1672243;85;21050;-72
2022/08/05 09:31:10;;;;;;;16.93;15.32;;;;;;;25.13;65.79;100175.42;1701556;83;21106;-75
2022/08/05 09:34:02;;;;;;;17.05;15.32;;;;;;;25.27;64.90;100164.78;1696143;83;21849;-72
2022/08/05 09:36:50;;;;;;;16.65;15.05;;;;;;;25.39;64.70;100169.78;1675258;84;21002;-73
2022/08/05 09:39:17;;;;;;;17.12;15.05;;;;;;;25.59;64.96;100169.03;1679882;84;21082;-73
2022/08/05 09:42:02;;;;;;;16.48;14.85;;;;;;;25.77;63.76;100166.89;1697113;84;21058;-74
2022/08/05 09:44:37;;;;;;;18.85;15.58;;;;;;;25.89;63.13;100166.95;1685470;83;21023;-73
2022/08/05 09:47:22;;;;;;;15.83;14.35;;;;;;;26.06;62.22;100170.70;1670667;85;22522;-72
2022/08/05 09:49:51;;;;;;;16.70;15.10;;;;;;;26.14;61.82;100172.23;1678985;83;21686;-71
2022/08/05 09:52:33;;;;;;;16.35;14.73;;;;;;;26.21;61.85;100172.98;1696970;83;21484;-72
2022/08/05 09:55:06;;;;;;;16.20;14.63;;;;;;;26.34;61.29;100176.03;1689019;83;21077;-71
2022/08/05 09:57:42;;;;;;;15.85;14.35;;;;;;;26.55;61.36;100172.86;1694873;83;21556;-72
2022/08/05 10:00:18;;;;;;;15.90;14.40;;;;;;;26.69;59.86;100176.18;1672515;84;22557;-71
2022/08/05 10:02:47;;;;;;;17.10;14.45;;;;;;;26.61;59.10;100182.75;1678332;84;21031;-70
2022/08/05 10:05:17;;;;;;;16.17;14.68;;;;;;;26.58;59.76;100176.45;1678347;83;21490;-73
2022/08/05 10:07:58;;;;;;;16.32;14.73;;;;;;;26.62;59.62;100178.16;1680420;84;21496;-71
2022/08/05 10:10:32;;;;;;;15.93;14.33;;;;;;;26.56;58.92;100176.39;1684121;83;21041;-71
2022/08/05 10:13:01;;;;;;;16.10;14.50;;;;;;;26.43;59.54;100180.92;1662309;84;21828;-71
2022/08/05 10:15:31;;;;;;;15.83;14.23;;;;;;;26.41;59.17;100173.56;1690941;84;21308;-70
2022/08/05 10:18:21;;;;;;;16.05;14.55;;;;;;;26.38;59.35;100170.50;1690253;83;21046;-73
2022/08/05 10:20:52;;;;;;;16.05;14.38;;;;;;;26.34;59.07;100167.38;1686767;84;21092;-71
2022/08/05 10:23:31;;;;;;;15.58;13.93;;;;;;;26.38;59.83;100170.50;1689659;84;21052;-71
2022/08/05 10:26:01;;;;;;;15.48;13.98;;;;;;;26.50;59.10;100161.88;1686955;83;21784;-72
2022/08/05 10:28:28;;;;;;;15.58;14.07;;;;;;;26.59;59.12;100164.55;1669594;84;21470;-71
2022/08/05 10:30:55;;;;;;;14.93;13.20;;;;;;;26.77;58.49;100153.64;1678610;84;21000;-73
2022/08/05 10:33:22;;;;;;;16.67;14.98;;;;;;;26.97;58.71;100149.77;1670573;84;21031;-72
2022/08/05 10:35:50;;;;;;;16.82;14.93;;;;;;;27.20;57.99;100144.38;1650498;83;21047;-71
2022/08/05 10:38:19;;;;;;;16.90;14.30;;;;;;;27.22;57.15;100150.95;1675542;85;23235;-70
2022/08/05 10:40:54;;;;;;;16.90;15.18;;;;;;;27.10;57.25;100144.14;1673825;84;21287;-70
2022/08/05 10:43:55;;;;;;;15.98;14.33;;;;;;;27.09;56.89;100155.52;1649781;85;21035;-71
2022/08/05 10:46:22;;;;;;;16.80;14.95;;;;;;;27.18;57.90;100153.28;1662484;85;21035;-70
2022/08/05 10:48:55;;;;;;;16.40;14.87;;;;;;;27.45;58.01;100152.80;1675002;85;21039;-71
2022/08/05 10:51:22;;;;;;;16.48;14.87;;;;;;;27.68;56.70;100151.95;1671376;84;21902;-71
2022/08/05 10:53:54;;;;;;;16.48;14.78;;;;;;;27.76;56.91;100149.70;1663169;85;21041;-71
2022/08/05 10:56:26;;;;;;;16.62;15.00;;;;;;;27.88;56.98;100149.13;1672958;85;21072;-71
2022/08/05 10:59:03;;;;;;;15.25;13.85;;;;;;;28.17;55.89;100141.81;1674757;84;21049;-70
2022/08/05 11:01:41;;;;;;;16.73;15.13;;;;;;;28.31;55.34;100140.21;1673118;85;21551;-72
2022/08/05 11:04:19;;;;;;;15.25;13.90;;;;;;;28.36;54.43;100141.11;1679897;84;21778;-70
2022/08/05 11:07:03;;;;;;;16.75;15.15;;;;;;;28.29;54.94;100151.86;1687614;83;21008;-70
2022/08/05 11:09:53;;;;;;;16.70;15.20;;;;;;;28.20;54.43;100143.25;1660780;84;21070;-72
2022/08/05 11:12:43;;;;;;;16.93;15.32;;;;;;;28.02;55.00;100142.91;1626795;87;21546;-70
2022/08/05 11:15:33;;;;;;;15.88;14.47;;;;;;;27.76;55.23;100144.80;1665458;85;21030;-69
2022/08/05 11:18:26;;;;;;;16.00;14.50;;;;;;;27.67;56.01;100145.70;1659031;84;22554;-71
2022/08/05 11:20:53;;;;;;;16.77;15.08;;;;;;;27.74;56.32;100139.63;1637509;85;21098;-70
2022/08/05 11:23:42;;;;;;;15.50;14.00;;;;;;;27.85;55.97;100137.41;1679089;84;21063;-70
2022/08/05 11:26:20;;;;;;;18.62;15.08;;;;;;;27.91;56.00;100139.16;1662916;84;21062;-71
2022/08/05 11:28:52;;;;;;;15.93;14.33;;;;;;;27.91;55.87;100132.91;1652143;84;21055;-70